Time;durP1;ratioP1;P1;durP2;ratioP2;P2;SDS_P1;SDS_P2;PMS_P1;PMS_P2;Temp;Humidity;BMP_temperature;BMP_pressure;BME280_temperature;BME280_humidity;BME280_pressure;Samples;Min_cycle;Max_cycle;Signal;HPM_P1;HPM_P2
2022/10/19 00:00:48;;;;;;;19.65;11.57;;;;;;;;;;4954194;28;20059;-68
2022/10/19 00:03:14;;;;;;;20.75;11.63;;;;;;;;;;4954067;28;20129;-67
2022/10/19 00:05:40;;;;;;;20.48;12.05;;;;;;;;;;4954194;28;20078;-67
2022/10/19 00:08:06;;;;;;;20.38;13.57;;;;;;;;;;4954111;28;20035;-68
2022/10/19 00:10:32;;;;;;;30.35;14.35;;;;;;;;;;4953685;28;20380;-68
2022/10/19 00:12:58;;;;;;;23.05;13.70;;;;;;;;;;4952791;28;20033;-68
2022/10/19 00:15:24;;;;;;;20.92;12.80;;;;;;;;;;4952903;28;20043;-69
2022/10/19 00:17:50;;;;;;;19.85;12.52;;;;;;;;;;4950106;28;20042;-68
2022/10/19 00:20:16;;;;;;;19.15;12.05;;;;;;;;;;4951232;28;20031;-67
2022/10/19 00:22:42;;;;;;;22.05;12.85;;;;;;;;;;4953142;28;20043;-68
2022/10/19 00:25:08;;;;;;;19.02;11.93;;;;;;;;;;4952946;29;20046;-70
2022/10/19 00:27:34;;;;;;;19.25;12.55;;;;;;;;;;4953566;29;20054;-67
2022/10/19 00:30:00;;;;;;;21.40;12.30;;;;;;;;;;4952194;29;20027;-68
2022/10/19 00:32:26;;;;;;;21.35;12.57;;;;;;;;;;4954006;29;20032;-67
2022/10/19 00:34:52;;;;;;;22.13;13.30;;;;;;;;;;4954120;28;20106;-69
2022/10/19 00:37:18;;;;;;;24.90;14.55;;;;;;;;;;4953808;29;20115;-73
2022/10/19 00:39:44;;;;;;;23.00;13.77;;;;;;;;;;4953663;29;20031;-66
2022/10/19 00:42:11;;;;;;;24.50;15.07;;;;;;;;;;4953697;29;20059;-67
2022/10/19 00:44:36;;;;;;;26.25;15.57;;;;;;;;;;4953672;28;20079;-66
2022/10/19 00:47:05;;;;;;;27.05;15.38;;;;;;;;;;4953897;29;20059;-69
2022/10/19 00:49:34;;;;;;;23.88;15.10;;;;;;;;;;4953789;28;20046;-67
2022/10/19 00:52:04;;;;;;;25.83;14.13;;;;;;;;;;4953529;29;20110;-68
2022/10/19 00:54:35;;;;;;;28.08;16.08;;;;;;;;;;4935792;28;20387;-70
2022/10/19 00:57:03;;;;;;;24.92;14.60;;;;;;;;;;4933290;29;20036;-70
2022/10/19 00:59:32;;;;;;;27.52;14.90;;;;;;;;;;4945149;29;20039;-67
2022/10/19 01:02:01;;;;;;;23.70;15.18;;;;;;;;;;4934721;29;20197;-66
2022/10/19 01:04:29;;;;;;;28.05;14.45;;;;;;;;;;4950592;29;20042;-70
2022/10/19 01:06:56;;;;;;;25.60;14.70;;;;;;;;;;4954296;29;20038;-71
2022/10/19 01:09:22;;;;;;;24.25;14.32;;;;;;;;;;4954109;28;20079;-67
2022/10/19 01:12:07;;;;;;;24.40;13.95;;;;;;;;;;4955106;28;20078;-71
2022/10/19 01:14:51;;;;;;;27.00;14.98;;;;;;;;;;4957889;28;20410;-67
2022/10/19 01:17:48;;;;;;;28.08;13.95;;;;;;;;;;4957789;29;20039;-68
2022/10/19 01:20:14;;;;;;;21.77;13.68;;;;;;;;;;4958088;28;20471;-69
2022/10/19 01:22:52;;;;;;;22.70;13.20;;;;;;;;;;4957751;29;20059;-66
2022/10/19 01:25:42;;;;;;;24.80;13.45;;;;;;;;;;4957942;29;20119;-66
2022/10/19 01:28:29;;;;;;;26.85;14.93;;;;;;;;;;4956987;28;20125;-71
2022/10/19 01:31:16;;;;;;;24.83;14.30;;;;;;;;;;4949217;29;20031;-68
2022/10/19 01:34:01;;;;;;;26.10;15.15;;;;;;;;;;4956559;29;20471;-70
2022/10/19 01:36:32;;;;;;;28.52;15.30;;;;;;;;;;4957714;29;20074;-67
2022/10/19 01:39:09;;;;;;;23.85;14.23;;;;;;;;;;4957610;28;20031;-69
2022/10/19 01:41:38;;;;;;;25.88;14.77;;;;;;;;;;4957690;28;20035;-70
2022/10/19 01:44:21;;;;;;;28.08;16.65;;;;;;;;;;4957511;29;20028;-67
2022/10/19 01:46:53;;;;;;;25.80;15.65;;;;;;;;;;4957239;28;20446;-70
2022/10/19 01:49:55;;;;;;;25.08;13.93;;;;;;;;;;4957381;29;20449;-70
2022/10/19 01:52:24;;;;;;;24.17;14.10;;;;;;;;;;4957275;29;20036;-69
2022/10/19 01:54:55;;;;;;;29.40;17.20;;;;;;;;;;4956078;29;20031;-67
2022/10/19 01:57:25;;;;;;;27.42;15.57;;;;;;;;;;4957044;28;20035;-68
2022/10/19 01:59:53;;;;;;;25.33;13.82;;;;;;;;;;4957371;28;20039;-71
2022/10/19 02:02:20;;;;;;;23.25;13.27;;;;;;;;;;4957391;28;20383;-68
2022/10/19 02:04:49;;;;;;;24.38;12.80;;;;;;;;;;4957331;28;20150;-69
2022/10/19 02:07:15;;;;;;;24.48;13.32;;;;;;;;;;4957010;29;20038;-66
2022/10/19 02:09:41;;;;;;;28.25;14.05;;;;;;;;;;4957316;28;20045;-66
2022/10/19 02:12:10;;;;;;;21.73;13.55;;;;;;;;;;4952445;29;20109;-67
2022/10/19 02:14:43;;;;;;;23.38;13.45;;;;;;;;;;4957065;29;20047;-66
2022/10/19 02:17:15;;;;;;;24.40;14.15;;;;;;;;;;4956870;28;20066;-66
2022/10/19 02:19:41;;;;;;;22.17;13.02;;;;;;;;;;4956750;29;20046;-66
2022/10/19 02:22:07;;;;;;;22.17;13.75;;;;;;;;;;4956832;28;20126;-69
2022/10/19 02:24:33;;;;;;;24.55;14.15;;;;;;;;;;4958370;28;20561;-71
2022/10/19 02:27:00;;;;;;;24.30;14.57;;;;;;;;;;4957027;28;20069;-67
2022/10/19 02:29:27;;;;;;;35.05;18.30;;;;;;;;;;4956123;28;20482;-65
2022/10/19 02:31:53;;;;;;;36.47;16.80;;;;;;;;;;4956333;28;20019;-66
2022/10/19 02:34:19;;;;;;;27.98;15.95;;;;;;;;;;4955115;29;20039;-68
2022/10/19 02:36:45;;;;;;;23.77;15.43;;;;;;;;;;4956208;29;20034;-67
2022/10/19 02:39:11;;;;;;;26.33;14.95;;;;;;;;;;4956086;29;20031;-67
2022/10/19 02:41:53;;;;;;;29.55;15.30;;;;;;;;;;4956346;28;20027;-66
2022/10/19 02:44:24;;;;;;;30.60;16.52;;;;;;;;;;4956310;29;20513;-66
2022/10/19 02:47:03;;;;;;;27.88;16.23;;;;;;;;;;4955975;29;20035;-67
2022/10/19 02:49:34;;;;;;;29.80;16.17;;;;;;;;;;4956237;28;20058;-70
2022/10/19 02:52:03;;;;;;;26.73;15.30;;;;;;;;;;4955039;29;20040;-70
2022/10/19 02:54:29;;;;;;;30.52;15.93;;;;;;;;;;4956154;28;20118;-71
2022/10/19 02:56:55;;;;;;;25.88;14.40;;;;;;;;;;4956241;28;20067;-69
2022/10/19 02:59:21;;;;;;;26.83;15.02;;;;;;;;;;4955930;28;20023;-71
2022/10/19 03:01:47;;;;;;;25.73;13.73;;;;;;;;;;4955932;29;20035;-72
2022/10/19 03:04:13;;;;;;;23.30;13.43;;;;;;;;;;4955876;29;20496;-67
2022/10/19 03:06:39;;;;;;;21.92;13.02;;;;;;;;;;4955718;29;20030;-71
2022/10/19 03:09:05;;;;;;;22.58;13.25;;;;;;;;;;4955508;28;20517;-67
2022/10/19 03:11:31;;;;;;;24.13;13.35;;;;;;;;;;4955717;29;20043;-70
2022/10/19 03:13:57;;;;;;;23.40;13.65;;;;;;;;;;4955906;29;20036;-67
2022/10/19 03:16:22;;;;;;;23.77;13.43;;;;;;;;;;4946669;29;20044;-69
2022/10/19 03:18:49;;;;;;;27.13;13.73;;;;;;;;;;4953561;29;20471;-70
2022/10/19 03:21:15;;;;;;;20.38;12.85;;;;;;;;;;4954958;28;20675;-69
2022/10/19 03:23:41;;;;;;;22.30;13.35;;;;;;;;;;4955074;28;20050;-69
2022/10/19 03:26:12;;;;;;;19.50;12.95;;;;;;;;;;4955287;29;20031;-71
2022/10/19 03:28:38;;;;;;;19.02;11.77;;;;;;;;;;4955229;29;20427;-68
2022/10/19 03:31:05;;;;;;;25.58;12.52;;;;;;;;;;4955531;28;20147;-67
2022/10/19 03:33:30;;;;;;;21.65;12.10;;;;;;;;;;4955427;28;20340;-71
2022/10/19 03:36:22;;;;;;;18.67;11.82;;;;;;;;;;4954559;28;20119;-68
2022/10/19 03:38:53;;;;;;;28.15;12.90;;;;;;;;;;4955091;28;20039;-68
2022/10/19 03:41:20;;;;;;;29.70;11.98;;;;;;;;;;4954722;28;20083;-71
2022/10/19 03:43:46;;;;;;;19.70;11.93;;;;;;;;;;4954472;28;20043;-69
2022/10/19 03:46:13;;;;;;;29.63;12.82;;;;;;;;;;4954838;29;20031;-70
2022/10/19 03:48:39;;;;;;;22.08;12.10;;;;;;;;;;4954714;28;20466;-68
2022/10/19 03:51:08;;;;;;;23.75;13.15;;;;;;;;;;4954780;29;20035;-68
2022/10/19 03:53:34;;;;;;;22.58;11.93;;;;;;;;;;4954721;29;20039;-67
2022/10/19 03:56:05;;;;;;;21.52;12.50;;;;;;;;;;4954445;28;20064;-69
2022/10/19 03:58:33;;;;;;;24.23;13.27;;;;;;;;;;4954276;29;20071;-68
2022/10/19 04:01:00;;;;;;;26.48;13.20;;;;;;;;;;4954214;28;20110;-69
2022/10/19 04:03:25;;;;;;;22.80;12.93;;;;;;;;;;4954102;28;20110;-68
2022/10/19 04:05:51;;;;;;;25.40;12.95;;;;;;;;;;4953441;28;20122;-69
2022/10/19 04:08:18;;;;;;;26.08;13.25;;;;;;;;;;4953663;28;20035;-69
2022/10/19 04:10:44;;;;;;;24.60;12.65;;;;;;;;;;4954542;28;20019;-70
2022/10/19 04:13:10;;;;;;;19.23;11.18;;;;;;;;;;4954211;28;20122;-66
2022/10/19 04:15:36;;;;;;;24.65;12.30;;;;;;;;;;4950651;28;20450;-68
2022/10/19 04:18:01;;;;;;;22.15;12.05;;;;;;;;;;4937996;29;20103;-71
2022/10/19 04:20:27;;;;;;;21.40;11.80;;;;;;;;;;4935015;29;20123;-69
2022/10/19 04:22:53;;;;;;;32.83;13.80;;;;;;;;;;4934644;29;20046;-67
2022/10/19 04:25:19;;;;;;;23.80;13.63;;;;;;;;;;4935237;29;20036;-67
2022/10/19 04:27:46;;;;;;;28.52;13.15;;;;;;;;;;4934930;29;20063;-71
2022/10/19 04:30:11;;;;;;;21.50;11.90;;;;;;;;;;4937909;29;20058;-68
2022/10/19 04:32:37;;;;;;;25.42;13.13;;;;;;;;;;4938142;29;20046;-67
2022/10/19 04:35:04;;;;;;;21.77;12.30;;;;;;;;;;4935322;29;20059;-72
2022/10/19 04:37:29;;;;;;;24.20;11.80;;;;;;;;;;4934569;29;20383;-70
2022/10/19 04:39:55;;;;;;;23.13;10.20;;;;;;;;;;4934661;29;20039;-67
2022/10/19 04:42:21;;;;;;;19.08;11.15;;;;;;;;;;4933668;29;20043;-67
2022/10/19 04:44:47;;;;;;;20.77;9.25;;;;;;;;;;4939106;28;20038;-67
2022/10/19 04:47:12;;;;;;;20.38;9.88;;;;;;;;;;4960956;28;20066;-66
2022/10/19 04:49:38;;;;;;;18.05;10.00;;;;;;;;;;4957374;29;20086;-67
2022/10/19 04:52:04;;;;;;;25.00;11.20;;;;;;;;;;4957612;29;20125;-71
2022/10/19 04:54:30;;;;;;;18.15;10.27;;;;;;;;;;4957520;29;20058;-68
2022/10/19 04:56:56;;;;;;;15.23;10.40;;;;;;;;;;4957056;28;20027;-67
2022/10/19 04:59:21;;;;;;;16.58;9.60;;;;;;;;;;4956857;29;20039;-70
2022/10/19 05:01:47;;;;;;;16.08;9.70;;;;;;;;;;4956945;28;20062;-67
2022/10/19 05:04:13;;;;;;;16.70;9.68;;;;;;;;;;4956886;28;20031;-69
2022/10/19 05:06:39;;;;;;;15.73;10.45;;;;;;;;;;4956759;28;20034;-67
2022/10/19 05:09:06;;;;;;;16.73;10.55;;;;;;;;;;4956744;29;20028;-66
2022/10/19 05:11:32;;;;;;;14.52;9.40;;;;;;;;;;4956495;29;20390;-70
2022/10/19 05:13:58;;;;;;;19.77;10.68;;;;;;;;;;4956980;28;20106;-66
2022/10/19 05:16:24;;;;;;;21.05;11.02;;;;;;;;;;4955767;29;20047;-71
2022/10/19 05:18:54;;;;;;;21.10;10.65;;;;;;;;;;4945161;29;20028;-68
2022/10/19 05:21:21;;;;;;;18.52;10.45;;;;;;;;;;4947865;28;20099;-68
2022/10/19 05:23:51;;;;;;;19.75;11.85;;;;;;;;;;4943611;29;20031;-67
2022/10/19 05:26:18;;;;;;;19.35;11.10;;;;;;;;;;4940420;29;20043;-69
2022/10/19 05:28:55;;;;;;;15.82;10.60;;;;;;;;;;4952132;29;20115;-70
2022/10/19 05:31:26;;;;;;;16.08;9.32;;;;;;;;;;4956656;29;20035;-71
2022/10/19 05:33:52;;;;;;;14.85;9.40;;;;;;;;;;4956776;29;20027;-66
2022/10/19 05:36:21;;;;;;;19.05;10.82;;;;;;;;;;4955594;28;20430;-67
2022/10/19 05:38:49;;;;;;;19.83;11.10;;;;;;;;;;4954866;29;20027;-67
2022/10/19 05:41:15;;;;;;;16.92;10.48;;;;;;;;;;4956328;28;20063;-69
2022/10/19 05:43:42;;;;;;;17.60;9.70;;;;;;;;;;4956283;28;20038;-67
2022/10/19 05:46:10;;;;;;;14.90;8.80;;;;;;;;;;4956409;28;20046;-71
2022/10/19 05:48:37;;;;;;;15.73;8.48;;;;;;;;;;4956290;29;20035;-68
2022/10/19 05:51:04;;;;;;;14.85;8.90;;;;;;;;;;4944414;28;20054;-68
2022/10/19 05:53:31;;;;;;;15.60;8.93;;;;;;;;;;4943980;29;20028;-68
2022/10/19 05:55:57;;;;;;;14.27;9.27;;;;;;;;;;4945047;29;20471;-67
2022/10/19 05:58:23;;;;;;;15.20;9.35;;;;;;;;;;4945617;28;20039;-65
2022/10/19 06:00:54;;;;;;;17.77;9.18;;;;;;;;;;4946439;29;20031;-70
2022/10/19 06:03:21;;;;;;;13.10;8.20;;;;;;;;;;4943945;29;20111;-71
2022/10/19 06:05:50;;;;;;;15.55;8.60;;;;;;;;;;4947931;29;20035;-69
2022/10/19 06:08:17;;;;;;;14.15;8.98;;;;;;;;;;4944962;28;20027;-70
2022/10/19 06:10:44;;;;;;;13.25;8.70;;;;;;;;;;4945975;28;20110;-70
2022/10/19 06:13:11;;;;;;;14.13;9.05;;;;;;;;;;4936730;29;20040;-71
2022/10/19 06:15:39;;;;;;;14.20;8.80;;;;;;;;;;4946308;29;20111;-76
2022/10/19 06:18:11;;;;;;;15.63;10.15;;;;;;;;;;4955802;28;20035;-73
2022/10/19 06:20:40;;;;;;;14.63;8.95;;;;;;;;;;4955499;29;20031;-72
2022/10/19 06:23:07;;;;;;;13.70;8.52;;;;;;;;;;4955525;29;20423;-72
2022/10/19 06:25:33;;;;;;;23.88;9.75;;;;;;;;;;4955569;28;20486;-70
2022/10/19 06:28:00;;;;;;;17.23;9.10;;;;;;;;;;4954854;28;20486;-67
2022/10/19 06:30:26;;;;;;;16.75;9.30;;;;;;;;;;4953978;28;20039;-68
2022/10/19 06:32:52;;;;;;;15.32;9.82;;;;;;;;;;4943145;28;20434;-66
2022/10/19 06:35:18;;;;;;;17.13;10.25;;;;;;;;;;4948183;29;20031;-66
2022/10/19 06:37:44;;;;;;;15.13;10.15;;;;;;;;;;4949800;28;20030;-68
2022/10/19 06:40:10;;;;;;;14.80;10.18;;;;;;;;;;4948814;29;20039;-74
2022/10/19 06:42:38;;;;;;;14.98;9.85;;;;;;;;;;4951943;28;20126;-69
2022/10/19 06:45:10;;;;;;;19.33;10.70;;;;;;;;;;4936213;29;20028;-70
2022/10/19 06:47:36;;;;;;;20.17;11.57;;;;;;;;;;4935449;29;20038;-71
2022/10/19 06:50:04;;;;;;;20.65;11.75;;;;;;;;;;4938702;29;20031;-73
2022/10/19 06:52:29;;;;;;;20.45;11.82;;;;;;;;;;4941828;29;20042;-72
2022/10/19 06:54:55;;;;;;;20.05;11.98;;;;;;;;;;4952812;29;20043;-71
2022/10/19 06:57:22;;;;;;;23.85;12.50;;;;;;;;;;4953420;29;20032;-70
2022/10/19 06:59:48;;;;;;;19.17;11.25;;;;;;;;;;4954160;28;20035;-72
2022/10/19 07:02:15;;;;;;;22.15;12.02;;;;;;;;;;4955165;28;20618;-74
2022/10/19 07:04:41;;;;;;;19.38;11.63;;;;;;;;;;4941331;29;20075;-71
2022/10/19 07:07:06;;;;;;;18.52;12.23;;;;;;;;;;4950797;29;20076;-74
2022/10/19 07:09:33;;;;;;;24.42;12.50;;;;;;;;;;4953846;28;20509;-71
2022/10/19 07:11:59;;;;;;;21.75;12.45;;;;;;;;;;4954988;28;20042;-72
2022/10/19 07:14:27;;;;;;;19.40;12.73;;;;;;;;;;4954827;28;20035;-67
2022/10/19 07:16:54;;;;;;;21.20;11.88;;;;;;;;;;4954927;28;20031;-70
2022/10/19 07:19:20;;;;;;;19.85;12.00;;;;;;;;;;4954296;28;20110;-68
2022/10/19 07:21:49;;;;;;;29.67;12.85;;;;;;;;;;4954253;28;20058;-72
2022/10/19 07:24:15;;;;;;;21.15;11.55;;;;;;;;;;4954521;28;20040;-69
2022/10/19 07:26:41;;;;;;;20.83;12.77;;;;;;;;;;4954758;28;20039;-69
2022/10/19 07:29:07;;;;;;;18.83;11.82;;;;;;;;;;4954611;29;20035;-67
2022/10/19 07:31:33;;;;;;;17.02;11.98;;;;;;;;;;4954275;28;20066;-73
2022/10/19 07:34:03;;;;;;;18.38;12.20;;;;;;;;;;4954759;29;20031;-67
2022/10/19 07:36:32;;;;;;;20.15;12.18;;;;;;;;;;4954520;29;20176;-70
2022/10/19 07:38:59;;;;;;;14.23;10.57;;;;;;;;;;4954437;28;20047;-69
2022/10/19 07:41:25;;;;;;;20.33;12.18;;;;;;;;;;4954172;28;20106;-67
2022/10/19 07:43:51;;;;;;;19.08;11.15;;;;;;;;;;4953470;28;20027;-70
2022/10/19 07:46:20;;;;;;;21.45;11.27;;;;;;;;;;4954219;28;20031;-66
2022/10/19 07:48:46;;;;;;;17.65;11.05;;;;;;;;;;4954187;28;20490;-67
2022/10/19 07:51:14;;;;;;;17.25;10.95;;;;;;;;;;4954344;28;20102;-68
2022/10/19 07:53:40;;;;;;;16.10;10.73;;;;;;;;;;4954078;29;20054;-67
2022/10/19 07:56:09;;;;;;;19.20;11.15;;;;;;;;;;4953857;28;20035;-69
2022/10/19 07:58:36;;;;;;;18.77;10.02;;;;;;;;;;4953813;28;20023;-70
2022/10/19 08:01:04;;;;;;;19.42;11.27;;;;;;;;;;4954535;28;20145;-71
2022/10/19 08:03:31;;;;;;;14.27;8.90;;;;;;;;;;4953901;28;20122;-69
2022/10/19 08:06:02;;;;;;;12.90;8.57;;;;;;;;;;4954242;28;20082;-67
2022/10/19 08:08:28;;;;;;;15.30;8.45;;;;;;;;;;4952969;29;20055;-70
2022/10/19 08:10:55;;;;;;;15.50;8.38;;;;;;;;;;4953876;28;20038;-72
2022/10/19 08:13:21;;;;;;;14.13;8.38;;;;;;;;;;4954054;28;20071;-68
2022/10/19 08:15:47;;;;;;;15.88;8.23;;;;;;;;;;4951291;28;20074;-72
2022/10/19 08:18:13;;;;;;;13.00;7.68;;;;;;;;;;4944042;28;20043;-71
2022/10/19 08:20:43;;;;;;;16.10;8.38;;;;;;;;;;4950841;28;20023;-68
2022/10/19 08:23:09;;;;;;;17.85;7.60;;;;;;;;;;4955280;28;20474;-70
2022/10/19 08:25:36;;;;;;;16.73;7.40;;;;;;;;;;4940766;28;20035;-68
2022/10/19 08:28:02;;;;;;;12.60;6.93;;;;;;;;;;4949279;28;20027;-69
2022/10/19 08:30:28;;;;;;;11.45;7.13;;;;;;;;;;4941171;28;20043;-74
2022/10/19 08:32:54;;;;;;;12.10;7.57;;;;;;;;;;4952052;28;20042;-71
2022/10/19 08:35:20;;;;;;;13.98;8.10;;;;;;;;;;4945355;28;20030;-71
2022/10/19 08:37:46;;;;;;;9.93;6.88;;;;;;;;;;4950668;28;20581;-70
2022/10/19 08:40:19;;;;;;;14.10;7.50;;;;;;;;;;4957248;28;20035;-71
2022/10/19 08:43:03;;;;;;;12.70;7.45;;;;;;;;;;4949566;28;20035;-71
2022/10/19 08:45:37;;;;;;;11.93;7.75;;;;;;;;;;4951271;28;20032;-74
2022/10/19 08:48:21;;;;;;;11.50;6.47;;;;;;;;;;4951254;28;20316;-70
2022/10/19 08:50:47;;;;;;;11.60;6.25;;;;;;;;;;4948084;28;20082;-69
2022/10/19 08:53:36;;;;;;;15.65;6.57;;;;;;;;;;4950576;28;20027;-69
2022/10/19 08:56:28;;;;;;;14.30;7.47;;;;;;;;;;4943942;28;20075;-72
2022/10/19 08:59:07;;;;;;;10.48;6.22;;;;;;;;;;4944966;28;20050;-75
2022/10/19 09:01:39;;;;;;;13.68;6.97;;;;;;;;;;4958115;28;20046;-72
2022/10/19 09:04:13;;;;;;;9.90;6.07;;;;;;;;;;4947233;28;20035;-70
2022/10/19 09:07:08;;;;;;;14.88;7.35;;;;;;;;;;4940984;28;20482;-69
2022/10/19 09:09:50;;;;;;;14.80;7.05;;;;;;;;;;4943470;28;20372;-70
2022/10/19 09:12:27;;;;;;;12.65;7.00;;;;;;;;;;4947767;28;20553;-71
2022/10/19 09:14:59;;;;;;;9.65;6.05;;;;;;;;;;4951196;28;20071;-68
2022/10/19 09:17:27;;;;;;;10.35;6.22;;;;;;;;;;4946957;28;20039;-69
2022/10/19 09:19:53;;;;;;;11.65;6.68;;;;;;;;;;4948202;28;20166;-71
2022/10/19 09:22:31;;;;;;;11.98;7.22;;;;;;;;;;4949262;28;20039;-73
2022/10/19 09:25:02;;;;;;;20.45;7.47;;;;;;;;;;4948074;28;20039;-70
2022/10/19 09:27:35;;;;;;;16.70;8.10;;;;;;;;;;4944329;28;20106;-70
2022/10/19 09:30:05;;;;;;;13.18;6.95;;;;;;;;;;4950174;28;20031;-68
2022/10/19 09:32:38;;;;;;;11.65;6.20;;;;;;;;;;4950441;28;20111;-68
2022/10/19 09:35:26;;;;;;;9.98;6.60;;;;;;;;;;4947629;28;20039;-74
2022/10/19 09:37:53;;;;;;;11.55;6.88;;;;;;;;;;4952546;28;20043;-70
2022/10/19 09:40:28;;;;;;;12.98;6.45;;;;;;;;;;4958841;28;20046;-72
2022/10/19 09:42:58;;;;;;;31.95;7.65;;;;;;;;;;4955044;28;20035;-74
2022/10/19 09:45:52;;;;;;;16.05;7.28;;;;;;;;;;4952879;28;20062;-70
2022/10/19 09:48:40;;;;;;;11.23;6.32;;;;;;;;;;4948943;28;20047;-71
2022/10/19 09:51:12;;;;;;;9.07;5.63;;;;;;;;;;4950769;28;20505;-71
2022/10/19 09:53:48;;;;;;;10.68;6.30;;;;;;;;;;4949060;28;20046;-73
2022/10/19 09:56:21;;;;;;;12.27;7.15;;;;;;;;;;4944091;28;20034;-72
2022/10/19 09:58:53;;;;;;;15.40;8.23;;;;;;;;;;4955114;28;20510;-74
2022/10/19 10:01:37;;;;;;;11.95;6.50;;;;;;;;;;4954068;28;20042;-73
2022/10/19 10:04:14;;;;;;;14.73;7.10;;;;;;;;;;4953555;28;20043;-69
2022/10/19 10:06:41;;;;;;;10.65;6.38;;;;;;;;;;4948571;28;20035;-72
2022/10/19 10:09:17;;;;;;;9.65;6.22;;;;;;;;;;4948018;28;20028;-69
2022/10/19 10:11:46;;;;;;;11.90;6.03;;;;;;;;;;4941689;28;20066;-69
2022/10/19 10:14:33;;;;;;;11.80;5.72;;;;;;;;;;4948674;28;20062;-69
2022/10/19 10:17:18;;;;;;;10.55;5.82;;;;;;;;;;4954992;28;20054;-70
2022/10/19 10:19:58;;;;;;;8.23;5.05;;;;;;;;;;4949897;28;20107;-71
2022/10/19 10:22:36;;;;;;;8.75;5.22;;;;;;;;;;4945123;28;20068;-67
2022/10/19 10:25:12;;;;;;;6.32;4.70;;;;;;;;;;4942438;28;20534;-71
2022/10/19 10:27:39;;;;;;;10.80;5.18;;;;;;;;;;4943463;28;20036;-70
2022/10/19 10:30:09;;;;;;;9.35;4.70;;;;;;;;;;4945892;28;20571;-72
2022/10/19 10:32:50;;;;;;;7.90;4.50;;;;;;;;;;4943260;28;20438;-71
2022/10/19 10:35:40;;;;;;;9.57;4.57;;;;;;;;;;4947705;28;20150;-71
2022/10/19 10:38:17;;;;;;;9.52;4.35;;;;;;;;;;4952818;28;20055;-72
2022/10/19 10:40:55;;;;;;;6.97;4.18;;;;;;;;;;4948848;28;20094;-70
2022/10/19 10:43:31;;;;;;;10.75;5.00;;;;;;;;;;4964125;28;20127;-74
2022/10/19 10:46:15;;;;;;;9.57;4.90;;;;;;;;;;4945777;28;20464;-72
2022/10/19 10:48:44;;;;;;;7.10;4.20;;;;;;;;;;4954635;28;20110;-72
2022/10/19 10:51:28;;;;;;;7.85;4.85;;;;;;;;;;4948351;28;20016;-69
2022/10/19 10:54:15;;;;;;;7.63;5.25;;;;;;;;;;4956614;28;20125;-71
2022/10/19 10:56:43;;;;;;;6.93;4.50;;;;;;;;;;4947342;28;20042;-70
2022/10/19 10:59:20;;;;;;;7.57;4.97;;;;;;;;;;4950422;28;20134;-70
2022/10/19 11:02:11;;;;;;;10.57;4.80;;;;;;;;;;4948131;28;20092;-70
2022/10/19 11:04:48;;;;;;;6.97;4.32;;;;;;;;;;4952891;28;20605;-70
2022/10/19 11:07:23;;;;;;;11.25;5.03;;;;;;;;;;4944695;28;20439;-70
2022/10/19 11:10:05;;;;;;;8.45;4.90;;;;;;;;;;4949136;28;20086;-72
2022/10/19 11:12:49;;;;;;;6.40;4.30;;;;;;;;;;4953778;28;20041;-69
2022/10/19 11:15:21;;;;;;;;;;;;;;;;;;4944470;28;20032;-68
2022/10/19 11:18:17;;;;;;;7.18;4.15;;;;;;;;;;4953691;28;19922;-69
2022/10/19 11:20:53;;;;;;;8.73;4.57;;;;;;;;;;4949254;28;20032;-68
2022/10/19 11:23:34;;;;;;;5.47;4.10;;;;;;;;;;4952563;28;20046;-70
2022/10/19 11:26:09;;;;;;;9.90;4.60;;;;;;;;;;4949469;28;20035;-74
2022/10/19 11:29:05;;;;;;;11.35;4.10;;;;;;;;;;4953035;28;20059;-73
2022/10/19 11:31:49;;;;;;;6.47;3.85;;;;;;;;;;4945493;28;20043;-73
2022/10/19 11:34:27;;;;;;;6.43;3.45;;;;;;;;;;4947681;28;20055;-69
2022/10/19 11:37:10;;;;;;;7.90;3.83;;;;;;;;;;4950945;28;20363;-68
2022/10/19 11:40:08;;;;;;;7.65;3.67;;;;;;;;;;4947065;28;20094;-70
2022/10/19 11:42:36;;;;;;;7.75;3.65;;;;;;;;;;4927976;28;20044;-70
2022/10/19 11:45:26;;;;;;;8.20;3.88;;;;;;;;;;4955132;28;20170;-69
2022/10/19 11:48:01;;;;;;;9.95;4.30;;;;;;;;;;4952946;28;20169;-70
2022/10/19 11:50:48;;;;;;;7.05;3.97;;;;;;;;;;4949038;28;20035;-70
2022/10/19 11:53:24;;;;;;;6.22;3.90;;;;;;;;;;4946720;28;20031;-70
2022/10/19 11:56:04;;;;;;;8.15;4.35;;;;;;;;;;4950107;28;20335;-69
2022/10/19 11:58:57;;;;;;;9.15;4.55;;;;;;;;;;4953078;28;20458;-72
2022/10/19 12:01:59;;;;;;;7.90;4.28;;;;;;;;;;4949175;28;20055;-70
2022/10/19 12:04:27;;;;;;;8.15;4.30;;;;;;;;;;4947938;28;20061;-72
2022/10/19 12:07:02;;;;;;;8.10;3.88;;;;;;;;;;4949264;28;20027;-72
2022/10/19 12:09:28;;;;;;;13.07;4.53;;;;;;;;;;4951367;28;20028;-72
2022/10/19 12:12:01;;;;;;;6.72;4.15;;;;;;;;;;4950264;28;20496;-69
2022/10/19 12:14:33;;;;;;;5.80;3.95;;;;;;;;;;4953678;28;20122;-71
2022/10/19 12:17:06;;;;;;;6.32;3.90;;;;;;;;;;4950225;28;20047;-70
2022/10/19 12:19:38;;;;;;;5.95;3.90;;;;;;;;;;4946539;28;20419;-72
2022/10/19 12:22:10;;;;;;;5.85;3.92;;;;;;;;;;4943995;28;20070;-72
2022/10/19 12:24:35;;;;;;;10.15;4.50;;;;;;;;;;4948073;28;20082;-71
2022/10/19 12:27:03;;;;;;;8.15;4.22;;;;;;;;;;4952285;28;20023;-70
2022/10/19 12:29:34;;;;;;;10.57;3.80;;;;;;;;;;4949822;28;20031;-68
2022/10/19 12:32:01;;;;;;;5.55;3.90;;;;;;;;;;4952012;28;20050;-71
2022/10/19 12:35:03;;;;;;;8.10;4.43;;;;;;;;;;4950089;28;20034;-70
2022/10/19 12:37:31;;;;;;;6.45;4.18;;;;;;;;;;4949838;28;20078;-70
2022/10/19 12:40:30;;;;;;;5.90;3.70;;;;;;;;;;4950312;28;20066;-74
2022/10/19 12:43:02;;;;;;;7.07;3.80;;;;;;;;;;4924160;28;20422;-68
2022/10/19 12:45:33;;;;;;;4.88;3.70;;;;;;;;;;4946398;28;20031;-69
2022/10/19 12:48:11;;;;;;;5.60;3.30;;;;;;;;;;4950952;28;20057;-69
2022/10/19 12:50:49;;;;;;;5.95;2.90;;;;;;;;;;4948150;28;20046;-70
2022/10/19 12:53:35;;;;;;;11.65;4.20;;;;;;;;;;4946493;28;20035;-71
2022/10/19 12:56:17;;;;;;;7.90;3.58;;;;;;;;;;4963673;28;20059;-68
2022/10/19 12:58:43;;;;;;;9.18;3.72;;;;;;;;;;4952272;28;20031;-67
2022/10/19 13:01:14;;;;;;;6.07;3.38;;;;;;;;;;4958229;28;20038;-70
2022/10/19 13:03:43;;;;;;;5.38;3.15;;;;;;;;;;4955237;28;20047;-67
2022/10/19 13:06:18;;;;;;;6.20;3.63;;;;;;;;;;4949793;28;20031;-69
2022/10/19 13:08:53;;;;;;;5.13;3.10;;;;;;;;;;4954660;28;20404;-71
2022/10/19 13:11:20;;;;;;;4.80;2.88;;;;;;;;;;4948921;28;20058;-70
2022/10/19 13:13:57;;;;;;;8.50;3.15;;;;;;;;;;4958757;28;20465;-70
2022/10/19 13:16:39;;;;;;;7.10;3.50;;;;;;;;;;4949976;28;20032;-71
2022/10/19 13:19:11;;;;;;;5.17;3.30;;;;;;;;;;4951239;28;20027;-69
2022/10/19 13:21:52;;;;;;;6.57;3.63;;;;;;;;;;4954101;28;20055;-70
2022/10/19 13:24:25;;;;;;;8.63;3.67;;;;;;;;;;4945441;28;20404;-71
2022/10/19 13:27:03;;;;;;;;;;;;;;;;;;4951963;28;20438;-70
2022/10/19 13:29:38;;;;;;;6.72;3.35;;;;;;;;;;4952693;28;19921;-69
2022/10/19 13:32:37;;;;;;;4.50;3.20;;;;;;;;;;4951546;28;20383;-70
2022/10/19 13:35:22;;;;;;;9.02;3.78;;;;;;;;;;4954010;28;20030;-69
2022/10/19 13:38:19;;;;;;;7.20;3.35;;;;;;;;;;4952008;28;20466;-70
2022/10/19 13:40:48;;;;;;;8.93;3.90;;;;;;;;;;4955594;28;20036;-69
2022/10/19 13:43:24;;;;;;;6.45;4.15;;;;;;;;;;4952911;28;20110;-70
2022/10/19 13:46:02;;;;;;;5.72;3.35;;;;;;;;;;4949822;28;20028;-69
2022/10/19 13:48:51;;;;;;;7.28;3.97;;;;;;;;;;4953804;28;20042;-69
2022/10/19 13:51:32;;;;;;;8.00;3.72;;;;;;;;;;4947107;28;20078;-68
2022/10/19 13:54:34;;;;;;;8.63;3.67;;;;;;;;;;4953083;28;20035;-69
2022/10/19 13:57:15;;;;;;;7.65;3.83;;;;;;;;;;4956913;28;20047;-69
2022/10/19 13:59:51;;;;;;;9.60;4.10;;;;;;;;;;4953334;28;20350;-69
2022/10/19 14:02:45;;;;;;;7.03;4.03;;;;;;;;;;4950132;28;20402;-68
2022/10/19 14:05:35;;;;;;;7.55;3.60;;;;;;;;;;4949462;28;20058;-70
2022/10/19 14:08:40;;;;;;;6.13;3.55;;;;;;;;;;4949257;28;20027;-71
2022/10/19 14:11:24;;;;;;;8.75;3.20;;;;;;;;;;4951578;28;20127;-69
2022/10/19 14:14:16;;;;;;;8.48;3.85;;;;;;;;;;4953854;28;20038;-71
2022/10/19 14:16:56;;;;;;;5.60;3.60;;;;;;;;;;4954576;28;20399;-72
2022/10/19 14:19:26;;;;;;;7.95;3.60;;;;;;;;;;4950711;28;20368;-72
2022/10/19 14:21:57;;;;;;;7.53;4.13;;;;;;;;;;4956448;28;20098;-72
2022/10/19 14:24:34;;;;;;;9.40;4.10;;;;;;;;;;4949437;28;20063;-71
2022/10/19 14:27:06;;;;;;;8.05;3.95;;;;;;;;;;4956675;28;20031;-69
2022/10/19 14:29:44;;;;;;;11.32;4.35;;;;;;;;;;4949365;28;20039;-74
2022/10/19 14:32:11;;;;;;;8.27;3.92;;;;;;;;;;4955545;28;20446;-68
2022/10/19 14:35:03;;;;;;;6.53;3.92;;;;;;;;;;4951677;28;20047;-69
2022/10/19 14:37:30;;;;;;;7.57;3.85;;;;;;;;;;4945833;28;20038;-70
2022/10/19 14:40:20;;;;;;;7.13;3.28;;;;;;;;;;4957276;28;20466;-69
2022/10/19 14:42:47;;;;;;;6.70;3.70;;;;;;;;;;4954788;28;20379;-70
2022/10/19 14:45:22;;;;;;;7.53;4.20;;;;;;;;;;4949424;28;20046;-69
2022/10/19 14:47:59;;;;;;;8.95;3.50;;;;;;;;;;4950027;28;20539;-68
2022/10/19 14:50:48;;;;;;;5.93;3.40;;;;;;;;;;4948529;28;20035;-72
2022/10/19 14:53:35;;;;;;;6.65;3.70;;;;;;;;;;4947757;28;20122;-69
2022/10/19 14:56:19;;;;;;;5.43;3.40;;;;;;;;;;4950740;28;20035;-70
2022/10/19 14:59:21;;;;;;;5.32;3.53;;;;;;;;;;4955280;28;20368;-70